Latest Coastal Weather Observations for Dum In Mirrie

IDD60701

Issued at 2:11 pm CST Wednesday 10 February 2016 (issued every 10 minutes, with the page automatically refreshed every 10 minutes)

About coastal observations | Map of coastal stations | Coastal observations for NT | Marine services | Other Formats
Station Details ID: 014277 Name: DUM IN MIRRIE AIRSTRIP Lat: -12.63 Lon: 130.37 Height: 3.5 m
Data from the previous 72 hours. | See also: Recent months at Dum In Mirrie
Date/Time
CST
Temp

°C
Wind Pressure Rain
since 9am
mm
Weather Cloud Vis
km
Sea
Height
m
Swell
Dir
 
Speed
knots
Gust
knots
hPa Trend Height
m
Period
s
Dir
10/02:00pm 32.4 W 7 13 1005.7 - 0.0 - - - - - - -
10/01:30pm 32.3 W 8 13 1006.1 - 0.0 - - - - - - -
10/01:00pm 32.3 W 7 11 1006.5 - 0.0 - - - - - - -
10/12:30pm 32.4 WSW 6 13 1007.0 - 0.0 - - - - - - -
10/12:00pm 32.0 W 8 11 1007.2 - 0.0 - - - - - - -
10/11:30am 31.8 W 8 12 1007.4 - 0.0 - - - - - - -
10/11:00am 31.0 W 9 12 1007.6 - 0.0 - - - - - - -
10/10:30am 31.5 W 6 9 1007.8 - 0.0 - - - - - - -
10/10:00am 31.4 W 5 8 1007.9 - 0.0 - - - - - - -
10/09:30am 31.5 W 4 8 1008.0 - 0.0 - - - - - - -
10/09:00am 30.9 W 5 9 1007.9 - 23.8 - - - - - - -
10/08:30am 30.6 W 5 10 1007.5 - 23.8 - - - - - - -
10/08:00am 30.4 W 7 13 1007.2 - 23.8 - - - - - - -
10/07:30am 29.9 W 6 11 1006.9 - 23.8 - - - - - - -
10/07:00am 29.6 W 7 11 1006.7 - 23.8 - - - - - - -
10/06:30am 29.6 W 6 10 1006.5 - 23.8 - - - - - - -
10/06:00am 29.4 W 6 10 1006.0 - 23.8 - - - - - - -
10/05:30am 29.4 W 6 10 1005.9 - 23.8 - - - - - - -
10/05:00am 29.2 W 4 7 1005.6 - 23.8 - - - - - - -
10/04:30am 29.3 W 5 7 1005.4 - 23.8 - - - - - - -
10/04:00am 29.4 W 4 7 1005.6 - 23.8 - - - - - - -
10/03:30am 29.2 W 3 6 1005.8 - 23.8 - - - - - - -
10/03:00am 29.2 WNW 3 5 1005.8 - 23.8 - - - - - - -
10/02:30am 29.2 WNW 3 5 1005.9 - 23.8 - - - - - - -
10/02:00am 29.1 WNW 3 5 1006.4 - 23.8 - - - - - - -
10/01:30am 29.1 NW 3 5 1006.8 - 23.8 - - - - - - -
10/01:00am 28.8 NW 3 5 1007.0 - 23.8 - - - - - - -
10/12:30am 28.5 NNW 2 3 1007.3 - 23.8 - - - - - - -
10/12:00am 28.4 NW 2 4 1007.7 - 23.8 - - - - - - -
 
Date/Time
CST
Temp

°C
Wind Pressure Rain
since 9am
mm
Weather Cloud Vis
km
Sea
Height
m
Swell
Dir
 
Speed
knots
Gust
knots
hPa Trend Height
m
Period
s
Dir
09/11:30pm 27.8 WNW 2 4 1007.9 - 23.8 - - - - - - -
09/11:00pm 28.4 WNW 3 4 1007.9 - 23.8 - - - - - - -
09/10:30pm 27.9 WNW 3 4 1007.8 - 23.8 - - - - - - -
09/10:00pm 27.1 NW 2 4 1007.7 - 23.8 - - - - - - -
09/09:30pm 27.2 CALM 0 1 1007.8 - 23.8 - - - - - - -
09/09:00pm 27.1 W 4 8 1007.5 - 23.8 Recent precip. - - - - - -
09/08:30pm 27.3 W 4 6 1007.3 - 23.6 - - - - - - -
09/08:00pm 26.8 SW 3 7 1007.6 - 23.4 - - - - - - -
09/07:30pm 25.8 SW 7 11 1008.1 - 23.4 - - - - - - -
09/07:00pm 24.8 NW 4 6 1007.6 - 23.4 - - - - - - -
09/06:30pm 24.7 WNW 4 6 1007.8 - 23.2 - - - - - - -
09/06:00pm 24.5 SW 11 16 1008.2 - 9.2 Rain - - - - - -
09/05:30pm 27.3 ESE 8 16 1007.1 - 0.2 - - - - - - -
09/05:00pm 32.2 WSW 2 4 1006.5 - 0.0 - - - - - - -
09/04:30pm 31.2 W 3 5 1005.9 - 0.0 - - - - - - -
09/04:00pm 31.2 WSW 6 8 1005.7 - 0.0 - - - - - - -
09/03:30pm 30.2 S 6 12 1006.0 - 0.0 - - - - - - -
09/03:00pm 32.3 WSW 6 11 1006.7 - 0.0 - - - - - - -
09/02:30pm 32.8 W 6 11 1006.8 - 0.0 - - - - - - -
09/02:00pm 32.6 W 6 11 1007.1 - 0.0 - - - - - - -
09/01:30pm 32.7 W 6 10 1007.4 - 0.0 - - - - - - -
09/01:00pm 32.1 W 5 9 1007.8 - 0.0 - - - - - - -
09/12:30pm 32.1 W 5 11 1008.2 - 0.0 - - - - - - -
09/12:00pm 32.0 W 5 9 1008.4 - 0.0 - - - - - - -
09/11:30am 32.1 W 5 8 1008.7 - 0.0 - - - - - - -
09/11:00am 31.7 W 4 6 1008.9 - 0.0 - - - - - - -
09/10:30am 31.4 W 4 7 1009.1 - 0.0 - - - - - - -
09/10:00am 31.2 W 4 6 1009.3 - 0.0 - - - - - - -
09/09:30am 31.5 W 3 5 1009.2 - 0.0 - - - - - - -
09/09:00am 31.0 W 3 5 1009.1 - 0.0 - - - - - - -
09/08:30am 30.9 WNW 3 5 1008.8 - 0.0 - - - - - - -
09/08:00am 30.6 WNW 2 4 1008.4 - 0.0 - - - - - - -
09/07:30am 29.8 WNW 2 4 1008.1 - 0.0 - - - - - - -
09/07:00am 29.1 WNW 2 4 1007.7 - 0.0 - - - - - - -
09/06:30am 28.9 NW 2 4 1007.4 - 0.0 - - - - - - -
09/06:00am 29.0 NW 3 5 1007.2 - 0.0 - - - - - - -
09/05:30am 29.1 WNW 3 6 1006.8 - 0.0 - - - - - - -
09/05:00am 29.1 NW 4 7 1006.5 - 0.0 - - - - - - -
09/04:30am 29.2 NW 4 7 1006.4 - 0.0 - - - - - - -
09/04:00am 29.2 NW 3 6 1006.5 - 0.0 - - - - - - -
09/03:30am 29.1 NW 3 5 1006.6 - 0.0 - - - - - - -
09/03:00am 29.0 WNW 3 5 1006.7 - 0.0 - - - - - - -
09/02:30am 28.9 WNW 3 5 1006.9 - 0.0 - - - - - - -
09/02:00am 28.7 WNW 2 4 1007.2 - 0.0 - - - - - - -
09/01:30am 28.6 NW 2 5 1007.4 - 0.0 - - - - - - -
09/01:00am 28.6 WNW 2 3 1007.7 - 0.0 - - - - - - -
09/12:30am 28.8 WNW 2 4 1008.0 - 0.0 - - - - - - -
09/12:00am 28.8 WNW 2 3 1008.2 - 0.0 - - - - - - -
 
Date/Time
CST
Temp

°C
Wind Pressure Rain
since 9am
mm
Weather Cloud Vis
km
Sea
Height
m
Swell
Dir
 
Speed
knots
Gust
knots
hPa Trend Height
m
Period
s
Dir
08/11:30pm 28.8 WNW 2 4 1008.3 - 0.0 - - - - - - -
08/11:00pm 28.7 WNW 2 3 1008.3 - 0.0 - - - - - - -
08/10:30pm 28.6 NW 2 3 1008.2 - 0.0 - - - - - - -
08/10:00pm 29.1 WNW 3 5 1008.1 - 0.0 - - - - - - -
08/09:30pm 29.2 WNW 3 5 1007.8 - 0.0 - - - - - - -
08/09:00pm 29.2 NW 3 6 1007.7 - 0.0 - - - - - - -
08/08:30pm 28.2 CALM 0 0 1007.4 - 0.0 - - - - - - -
08/08:00pm 28.5 NNW 2 3 1007.1 - 0.0 - - - - - - -
08/07:30pm 28.8 NNW 1 3 1006.7 - 0.0 - - - - - - -
08/07:00pm 29.3 N 3 5 1006.4 - 0.0 - - - - - - -
08/06:30pm 28.9 N 3 5 1006.2 - 0.0 - - - - - - -
08/06:00pm 27.9 NE 5 9 1006.6 - 0.0 - - - - - - -
08/05:30pm 26.9 ENE 9 17 1007.0 - 0.0 - - - - - - -
08/05:00pm 28.3 NE 5 19 1006.9 - 0.0 - - - - - - -
08/04:30pm 28.9 SSW 6 11 1006.5 - 0.0 - - - - - - -
08/04:00pm 31.8 W 5 7 1006.3 - 0.0 - - - - - - -
08/03:30pm 32.1 WSW 6 9 1006.1 - 0.0 - - - - - - -
08/03:00pm 31.9 WNW 4 7 1006.3 - 0.0 - - - - - - -
08/02:30pm 31.6 W 5 8 1006.7 - 0.0 - - - - - - -
08/02:00pm 31.9 W 6 9 1006.8 - 0.0 - - - - - - -
08/01:30pm 31.9 W 6 11 1007.5 - 0.0 - - - - - - -
08/01:00pm 31.9 W 5 8 1007.9 - 0.0 - - - - - - -
08/12:30pm 31.4 W 4 9 1008.4 - 0.0 - - - - - - -
08/12:00pm 31.0 W 5 7 1008.7 - 0.0 - - - - - - -
08/11:30am 31.6 W 4 8 1008.8 - 0.0 - - - - - - -
08/11:00am 31.3 W 4 7 1009.0 - 0.0 - - - - - - -
08/10:30am 30.8 WNW 3 5 1009.1 - 0.0 - - - - - - -
08/10:00am 30.7 WNW 3 5 1008.9 - 0.0 - - - - - - -
08/09:30am 30.6 WNW 2 5 1009.0 - 0.0 - - - - - - -
08/09:00am 30.5 NW 3 5 1008.9 - 0.0 - - - - - - -
08/08:30am 29.7 N 1 4 1008.5 - 0.0 - - - - - - -
08/08:00am 28.5 ENE 1 1 1008.5 - 0.0 - - - - - - -
08/07:30am 27.4 CALM 0 0 1008.1 - 0.0 - - - - - - -
08/07:00am 26.3 CALM 0 0 1008.0 - 0.0 - - - - - - -
08/06:30am 26.5 CALM 0 0 1007.9 - 0.0 - - - - - - -
08/06:00am 26.6 SE 1 2 1007.5 - 0.0 - - - - - - -
08/05:30am 26.6 CALM 0 1 1007.5 - 0.0 - - - - - - -
08/05:00am 26.7 CALM 0 0 1007.4 - 0.0 - - - - - - -
08/04:30am 27.0 CALM 0 0 1007.4 - 0.0 - - - - - - -
08/04:00am 27.0 CALM 0 1 1007.3 - 0.0 - - - - - - -
08/03:30am 27.1 CALM 0 0 1007.3 - 0.0 - - - - - - -
08/03:00am 27.1 CALM 0 0 1007.4 - 0.0 - - - - - - -
08/02:30am 27.3 SSE 1 3 1007.5 - 0.0 - - - - - - -
08/02:00am 26.8 CALM 0 0 1007.8 - 0.0 - - - - - - -
08/01:30am 26.6 CALM 0 0 1008.1 - 0.0 - - - - - - -
08/01:00am 27.0 CALM 0 0 1008.3 - 0.0 - - - - - - -
08/12:30am 27.1 CALM 0 0 1008.4 - 0.0 - - - - - - -
08/12:00am 27.5 CALM 0 0 1008.6 - 0.0 - - - - - - -
 
Date/Time
CST
Temp

°C
Wind Pressure Rain
since 9am
mm
Weather Cloud Vis
km
Sea
Height
m
Swell
Dir
 
Speed
knots
Gust
knots
hPa Trend Height
m
Period
s
Dir
07/11:30pm 27.7 WNW 1 3 1008.8 - 0.0 - - - - - - -
07/11:00pm 28.1 NW 1 2 1008.7 - 0.0 - - - - - - -
07/10:30pm 27.7 NW 1 2 1008.7 - 0.0 - - - - - - -
07/10:00pm 27.8 CALM 0 0 1008.6 - 0.0 - - - - - - -
07/09:30pm 28.0 CALM 0 0 1008.4 - 0.0 - - - - - - -
07/09:00pm 28.2 CALM 0 0 1008.3 - 0.0 - - - - - - -
07/08:30pm 28.4 CALM 0 0 1007.8 - 0.0 - - - - - - -
07/08:00pm 28.3 NE 1 2 1007.4 - 0.0 - - - - - - -
07/07:30pm 28.6 ENE 2 4 1007.2 - 0.0 - - - - - - -
07/07:00pm 28.9 NE 3 5 1006.7 - 0.0 - - - - - - -
07/06:30pm 30.1 CALM 0 1 1006.4 - 0.0 - - - - - - -
07/06:00pm 30.0 S 2 3 1006.3 - 0.0 - - - - - - -
07/05:30pm 30.6 SSE 3 5 1006.0 - 0.0 - - - - - - -
07/05:00pm 31.7 WSW 4 6 1006.0 - 0.0 - - - - - - -
07/04:30pm 31.8 WSW 5 7 1005.9 - 0.0 - - - - - - -
07/04:00pm 32.1 W 5 7 1005.8 - 0.0 - - - - - - -
07/03:30pm 32.2 W 5 9 1005.7 - 0.0 - - - - - - -
07/03:00pm 31.8 WNW 5 9 1005.6 - 0.0 - - - - - - -
07/02:30pm 31.5 WNW 5 10 1005.9 - 0.0 - - - - - - -

Other Formats:

Comma delimited format used in spreadsheet applications
http://www.bom.gov.au/fwo/IDD60701/IDD60701.94116.axf

JavaScript Object Notation format (JSON) in row-major order
http://www.bom.gov.au/fwo/IDD60701/IDD60701.94116.json